createdAt,value
2019-05-23T16:30:50.964Z,41.30
2019-05-23T16:33:20.070Z,40.90
2019-05-23T16:35:52.011Z,40.20
2019-05-23T16:38:26.606Z,40.50
2019-05-23T16:41:01.175Z,40.20
2019-05-23T16:44:08.024Z,41.70
2019-05-23T16:46:55.406Z,40.70
2019-05-23T16:49:28.984Z,39.30
2019-05-23T16:52:00.437Z,41.10
2019-05-23T16:54:36.545Z,42.70
2019-05-23T16:57:28.143Z,42.60
2019-05-23T17:00:22.821Z,41.10
2019-05-23T17:03:00.339Z,41.10
2019-05-23T17:05:53.390Z,43.70
2019-05-23T17:08:32.505Z,41.50
2019-05-23T17:11:23.731Z,42.00
2019-05-23T17:13:53.277Z,41.90
2019-05-23T17:16:31.225Z,41.50
2019-05-23T17:22:10.729Z,40.10
2019-05-23T17:24:53.791Z,42.50
2019-05-23T17:27:39.472Z,42.90
2019-05-23T17:30:15.974Z,42.20
2019-05-23T17:32:48.461Z,41.30
2019-05-23T17:35:19.148Z,40.60
2019-05-23T17:37:53.893Z,40.60
2019-05-23T17:40:25.837Z,40.90
2019-05-23T17:43:01.733Z,40.70
2019-05-23T17:45:37.552Z,42.20
2019-05-23T17:48:08.177Z,41.80
2019-05-23T17:50:50.848Z,42.30
2019-05-23T17:53:22.923Z,41.60
2019-05-23T17:56:26.565Z,42.60
2019-05-23T17:59:00.133Z,43.20
2019-05-23T18:01:29.611Z,43.90
2019-05-23T18:03:59.070Z,44.60
2019-05-23T18:06:29.806Z,45.50
2019-05-23T18:09:15.018Z,44.90
2019-05-23T18:11:44.294Z,44.70
2019-05-23T18:14:19.422Z,46.20
2019-05-23T18:16:50.538Z,47.10
2019-05-23T18:19:20.485Z,46.90
2019-05-23T18:21:49.827Z,47.10
2019-05-23T18:24:27.898Z,47.60
2019-05-23T18:26:57.487Z,48.00
2019-05-23T18:29:39.595Z,48.50
2019-05-23T18:32:10.998Z,49.10
2019-05-23T18:34:43.439Z,49.60
2019-05-23T18:37:15.638Z,49.80
2019-05-23T18:39:50.588Z,52.50
2019-05-23T18:42:38.690Z,51.50
2019-05-23T18:45:14.078Z,50.10
2019-05-23T18:47:44.578Z,51.10
2019-05-23T18:50:13.986Z,50.80
2019-05-23T18:52:45.977Z,52.30
2019-05-23T18:55:17.198Z,54.60
2019-05-23T18:57:57.121Z,54.90
2019-05-23T19:01:00.189Z,54.90
2019-05-23T19:03:33.415Z,56.10
2019-05-23T19:06:11.877Z,55.50
2019-05-23T19:08:44.763Z,56.00
2019-05-23T19:11:20.779Z,57.30
2019-05-23T19:13:45.970Z,56.90
2019-05-23T19:16:31.846Z,57.90
2019-05-23T19:19:02.549Z,56.10
2019-05-23T19:21:36.441Z,57.80
2019-05-23T19:24:05.261Z,59.80
2019-05-23T19:26:34.468Z,59.60
2019-05-23T19:29:12.911Z,61.80
2019-05-23T19:32:11.099Z,61.60
2019-05-23T19:34:45.599Z,62.30
2019-05-23T19:37:22.362Z,62.80
2019-05-23T19:39:59.687Z,63.50
2019-05-23T19:42:40.953Z,65.00
2019-05-23T19:45:12.131Z,65.20
2019-05-23T19:47:46.636Z,66.90
2019-05-23T19:50:15.815Z,68.90
2019-05-23T19:52:48.853Z,69.90
2019-05-23T19:55:24.057Z,71.40
2019-05-23T19:57:53.555Z,72.00
2019-05-23T20:00:25.436Z,69.70
2019-05-23T20:03:05.747Z,71.40
2019-05-23T20:05:42.069Z,72.90
2019-05-23T20:08:13.375Z,73.70
2019-05-23T20:10:41.279Z,74.10
2019-05-23T20:13:13.090Z,74.70
2019-05-23T20:15:47.612Z,75.10
2019-05-23T20:18:18.917Z,75.90
2019-05-23T20:20:47.415Z,76.60
2019-05-23T20:23:16.703Z,76.40
2019-05-23T20:25:45.545Z,77.30
2019-05-23T20:28:40.053Z,78.20
2019-05-23T20:31:14.826Z,78.20
2019-05-23T20:33:46.398Z,79.10
2019-05-23T20:36:24.026Z,80.30
2019-05-23T20:38:58.800Z,80.40
2019-05-23T20:41:31.389Z,80.80
2019-05-23T20:44:06.194Z,82.50
2019-05-23T20:46:40.576Z,83.30
2019-05-23T20:49:11.878Z,83.70
2019-05-23T20:51:47.984Z,84.60
2019-05-23T20:54:19.834Z,84.50
2019-05-23T20:56:54.509Z,84.90
2019-05-23T20:59:36.891Z,83.60
2019-05-23T21:02:08.426Z,83.50
2019-05-23T21:04:37.019Z,83.00
2019-05-23T21:07:05.884Z,85.30
2019-05-23T21:09:41.907Z,84.80
2019-05-23T21:12:28.942Z,85.00
2019-05-23T21:14:52.201Z,84.80
2019-05-23T21:17:31.037Z,85.10
2019-05-23T21:20:00.723Z,85.50
2019-05-23T21:22:32.298Z,85.60
2019-05-23T21:25:02.012Z,85.80
2019-05-23T21:27:43.223Z,86.80
2019-05-23T21:30:15.049Z,85.80
2019-05-23T21:32:44.838Z,85.90
2019-05-23T21:35:16.686Z,86.50
2019-05-23T21:37:51.110Z,85.90
2019-05-23T21:40:37.797Z,85.70
2019-05-23T21:43:14.709Z,86.50
2019-05-23T21:45:55.575Z,87.70
2019-05-23T21:48:35.586Z,88.20
2019-05-23T21:51:28.816Z,88.60
2019-05-23T21:54:00.589Z,87.50
2019-05-23T21:56:32.404Z,87.90
2019-05-23T21:59:03.741Z,88.00
2019-05-23T22:01:39.123Z,89.50
2019-05-23T22:04:26.229Z,89.70
2019-05-23T22:06:56.845Z,88.60
2019-05-23T22:09:27.618Z,87.70
2019-05-23T22:11:59.272Z,87.90
2019-05-23T22:14:56.349Z,88.20
2019-05-23T22:17:43.816Z,87.30
2019-05-23T22:20:15.611Z,87.20
2019-05-23T22:22:50.140Z,88.70
2019-05-23T22:25:53.747Z,89.30
2019-05-23T22:28:35.333Z,90.30
2019-05-23T22:31:08.450Z,90.60
2019-05-23T22:34:07.256Z,90.20
2019-05-23T22:36:43.112Z,90.40
2019-05-23T22:39:19.303Z,90.60
2019-05-23T22:41:51.151Z,90.20
2019-05-23T22:44:29.420Z,90.50
2019-05-23T22:46:58.154Z,90.40
2019-05-23T22:49:29.415Z,90.60
2019-05-23T22:52:06.324Z,90.80
2019-05-23T22:54:37.982Z,91.10
2019-05-23T22:57:12.632Z,91.20
2019-05-23T22:59:47.287Z,90.90
2019-05-23T23:02:18.699Z,90.80
2019-05-23T23:04:47.624Z,91.10
2019-05-23T23:07:20.131Z,91.70
2019-05-23T23:09:59.477Z,92.30
2019-05-23T23:12:28.218Z,92.60
2019-05-23T23:15:00.960Z,92.90
2019-05-23T23:17:44.867Z,93.40
2019-05-23T23:20:16.247Z,93.10
2019-05-23T23:22:49.221Z,93.10
2019-05-23T23:25:17.962Z,93.10
2019-05-23T23:27:46.701Z,93.30
2019-05-23T23:30:23.943Z,93.80
2019-05-23T23:32:52.511Z,93.80
2019-05-23T23:35:30.182Z,94.00
2019-05-23T23:38:01.020Z,94.20
2019-05-23T23:40:32.888Z,93.90
2019-05-23T23:43:04.653Z,93.70
2019-05-23T23:45:57.255Z,93.50
2019-05-23T23:48:47.014Z,93.50
2019-05-23T23:51:37.056Z,93.90
2019-05-23T23:54:47.835Z,94.40
2019-05-23T23:57:37.806Z,94.90
